الصفحة الرئيسية
METAR-TAF:

METAR-TAF

مطار :

فولغوغراد, روسيا

دائرة عرض: 48-47N, خط طول: 044-22E, ارتفاع: 145 متر

مراقبة الطقس الحالي

تاريخ ووقت الإصدار 17 دقيقة قبل الساعة 08:30UTC
ريح 8 عقدة من الشرق
درجة الحرارة -5°درجة مئوية
الرطوبة 79%
ضغط 1023 hPa
الرؤية 10 كم أو أكثر
غيوم مفككة على ارتفاع 2300 قدم

METAR: URWW 220830Z 08004MPS 9999 BKN023 M05/M08 Q1023 R06/120065 NOSIG

زمن: 11:47 (08:47 UTC)

توقعات

تاريخ ووقت الإصدار 47 دقيقة قبل الساعة 08:00UTC
التوقعات صالحة من22 الساعة 09 UTC إلى 22 الساعة 18 UTC
ريح 10 عقدة من الشرق/الشمال الشرقي تتزايد حتى 19 عقدة
الرؤية: 6000 متر
غيوم مفككة على ارتفاع 1100 قدم
غيوم مفككة على ارتفاع 2000 قدم, مزنة ركامية.
غيوم مفككة على ارتفاع 10000 قدم
مؤقت
من 22 الساعة 09 UTC إلى 22 الساعة 14 UTC
الرؤية: 3100 متر
زخات ثلجية خفيفة
أصبح
من 22 الساعة 14 UTC إلى 22 الساعة 16 UTC
الرؤية: 3100 متر
زخات ثلجية خفيفة

TAF: URWW 220800Z 2209/2218 07005G10MPS 6000 BKN011 BKN020CB BKN100 TEMPO 2209/2214 3100 -SHSN BECMG 2214/2216 3100 -SHSN

أرصاد الطقس والتوقعات من أكثر من 4000 مطار (تقارير الطقس للمطار METAR والتنبؤ بالطقس بالمطارTAF).

المحطات المتاحة هي النقط الصفراء والحمراء على الخريطة.

حرك المؤشر فوق النقطة لمعرفة اسم المحطة.

ثم انقر لمعرفة أرصاد وتوقعات الطقس.

لتغيير الخارطة: اضغط على الأزرار الخضراء مع رمز الصليب الأسود للتكبير. على الزر الأخضر مع شرطة للتصغير، أو على الأسهم الخضراء للخرائط المجاورة.


METAR-TAF: